Terminal Aerodrome Forecast
Issued by NWS

Home | Current Version | Previous Version | Text Only | Print | Product List | Glossary On
Versions: 1 2 3 4 5 6 7 8 9 10 11 12 13 14 15 16 17 18 19 20 21 22 23 24 25 26 27 28
652
FTPA31 PHFO 202333
TAFHKO
TAF
PHKO 202333Z 2100/2124 23011KT P6SM SCT060 SCT120
     FM210600 10005KT P6SM FEW045 SCT060
     FM212100 23011KT P6SM FEW045 SCT060=

USA.gov is the U.S. government's official web portal to all federal, state and local government web resources and services.